Time;durP1;ratioP1;P1;durP2;ratioP2;P2;SDS_P1;SDS_P2;PMS_P1;PMS_P2;Temp;Humidity;BMP_temperature;BMP_pressure;BME280_temperature;BME280_humidity;BME280_pressure;Samples;Min_cycle;Max_cycle;Signal;HPM_P1;HPM_P2
2022/03/22 00:00:07;;;;;;;28.70;25.73;;;;;21.80;101984.00;;;;2081132;28;20213;-50
2022/03/22 00:01:08;;;;;;;28.13;25.00;;;;;21.80;101992.00;;;;2080944;28;20697;-50
2022/03/22 00:02:08;;;;;;;28.00;25.20;;;;;21.80;101986.00;;;;2081157;28;20245;-52
2022/03/22 00:03:09;;;;;;;28.20;25.20;;;;;21.80;101990.00;;;;2081125;28;20561;-50
2022/03/22 00:04:10;;;;;;;25.87;23.20;;;;;21.80;101993.00;;;;2081038;28;20620;-51
2022/03/22 00:05:10;;;;;;;26.08;23.45;;;;;21.80;101988.00;;;;2080355;28;20687;-48
2022/03/22 00:06:10;;;;;;;28.57;25.47;;;;;21.80;101996.00;;;;2078785;28;20221;-51
2022/03/22 00:07:11;;;;;;;26.43;23.83;;;;;21.80;101994.00;;;;2072975;28;20297;-49
2022/03/22 00:08:11;;;;;;;27.63;24.83;;;;;21.80;101993.00;;;;2072266;28;20217;-51
2022/03/22 00:09:12;;;;;;;26.80;24.13;;;;;21.80;102007.00;;;;2072294;28;20210;-51
2022/03/22 00:10:12;;;;;;;25.90;23.17;;;;;21.80;101999.00;;;;2072676;28;20950;-50
2022/03/22 00:11:12;;;;;;;26.63;23.83;;;;;21.80;101994.00;;;;2078819;28;20701;-51
2022/03/22 00:12:13;;;;;;;25.70;23.00;;;;;21.80;101989.00;;;;2081236;28;20236;-51
2022/03/22 00:13:13;;;;;;;25.37;22.87;;;;;21.80;101991.00;;;;2081033;28;20711;-51
2022/03/22 00:14:14;;;;;;;25.17;22.67;;;;;21.80;101997.00;;;;2081177;28;20209;-51
2022/03/22 00:15:14;;;;;;;26.33;23.53;;;;;21.80;102000.00;;;;2079609;28;20221;-51
2022/03/22 00:16:15;;;;;;;24.37;21.77;;;;;21.80;101998.00;;;;2078792;28;20553;-50
2022/03/22 00:17:15;;;;;;;26.30;23.60;;;;;21.80;101992.00;;;;2070685;28;20218;-51
2022/03/22 00:18:15;;;;;;;24.90;22.40;;;;;21.80;101989.00;;;;2070851;28;20221;-52
2022/03/22 00:19:15;;;;;;;25.07;22.50;;;;;21.80;101993.00;;;;2077098;28;20232;-51
2022/03/22 00:20:16;;;;;;;23.97;21.47;;;;;21.80;102001.00;;;;2071904;28;20288;-51
2022/03/22 00:21:19;;;;;;;24.40;22.00;;;;;21.80;101999.00;;;;2071685;28;20225;-48
2022/03/22 00:22:19;;;;;;;24.13;21.65;;;;;21.80;101995.00;;;;2071663;28;20231;-50
2022/03/22 00:23:21;;;;;;;24.37;21.87;;;;;21.80;101992.00;;;;2071046;28;20229;-51
2022/03/22 00:24:22;;;;;;;23.92;21.52;;;;;21.80;101999.00;;;;2071063;28;20202;-51
2022/03/22 00:25:23;;;;;;;23.70;21.40;;;;;21.80;101994.00;;;;2070845;28;20215;-52
2022/03/22 00:26:23;;;;;;;22.75;20.55;;;;;21.80;102000.00;;;;2071539;28;20229;-52
2022/03/22 00:27:24;;;;;;;23.63;21.13;;;;;21.80;102001.00;;;;2071349;28;20240;-50
2022/03/22 00:28:24;;;;;;;25.73;23.20;;;;;21.80;101999.00;;;;2078194;28;20279;-50
2022/03/22 00:29:24;;;;;;;23.43;21.03;;;;;21.70;102001.00;;;;2079549;28;20213;-50
2022/03/22 00:30:29;;;;;;;23.80;21.40;;;;;21.70;102001.00;;;;2078731;28;20213;-50
2022/03/22 00:31:30;;;;;;;22.58;20.30;;;;;21.70;101996.00;;;;2071800;28;20222;-49
2022/03/22 00:32:30;;;;;;;22.27;19.90;;;;;21.70;101990.00;;;;2072063;28;20220;-46
2022/03/22 00:33:31;;;;;;;21.90;19.70;;;;;21.80;102000.00;;;;2071098;28;20716;-49
2022/03/22 00:34:31;;;;;;;22.13;19.90;;;;;21.80;101997.00;;;;2074157;28;20225;-51
2022/03/22 00:35:36;;;;;;;22.50;20.30;;;;;21.70;101997.00;;;;2072948;28;20221;-48
2022/03/22 00:36:36;;;;;;;21.83;19.73;;;;;21.80;102000.00;;;;2064022;28;20690;-51
2022/03/22 00:37:42;;;;;;;21.93;19.77;;;;;21.80;102005.00;;;;2071110;28;20234;-51
2022/03/22 00:38:43;;;;;;;23.67;21.27;;;;;21.80;102005.00;;;;2071438;28;20222;-51
2022/03/22 00:39:45;;;;;;;21.98;19.67;;;;;21.70;102006.00;;;;2071395;28;20222;-49
2022/03/22 00:40:45;;;;;;;22.00;19.88;;;;;21.70;102003.00;;;;2070397;28;20626;-50
2022/03/22 00:41:45;;;;;;;20.20;18.17;;;;;21.70;101999.00;;;;2070816;28;20221;-51
2022/03/22 00:42:46;;;;;;;22.70;20.50;;;;;21.70;101993.00;;;;2071432;28;20234;-49
2022/03/22 00:43:46;;;;;;;23.10;20.80;;;;;21.70;101993.00;;;;2071067;28;20313;-51
2022/03/22 00:44:47;;;;;;;21.20;18.83;;;;;21.70;101997.00;;;;2071246;28;20210;-51
2022/03/22 00:45:48;;;;;;;25.07;20.50;;;;;21.70;101988.00;;;;2070591;28;20329;-51
2022/03/22 00:46:50;;;;;;;20.80;18.60;;;;;21.70;101994.00;;;;2071412;28;20700;-49
2022/03/22 00:47:51;;;;;;;20.40;18.50;;;;;21.70;102002.00;;;;2071218;28;20284;-51
2022/03/22 00:48:52;;;;;;;21.90;19.60;;;;;21.70;101991.00;;;;2074321;28;20217;-50
2022/03/22 00:49:52;;;;;;;23.30;21.00;;;;;21.70;101992.00;;;;2070873;28;20210;-50
2022/03/22 00:50:52;;;;;;;19.50;17.60;;;;;21.70;101992.00;;;;2071163;28;20229;-49
2022/03/22 00:51:53;;;;;;;21.47;19.17;;;;;21.70;101994.00;;;;2071006;28;20710;-49
2022/03/22 00:52:54;;;;;;;22.70;20.30;;;;;21.70;101990.00;;;;2070767;28;20217;-50
2022/03/22 00:53:54;;;;;;;19.20;17.20;;;;;21.70;101992.00;;;;2070923;28;20813;-49
2022/03/22 00:54:55;;;;;;;19.37;17.47;;;;;21.70;101992.00;;;;2077128;28;20209;-49
2022/03/22 00:55:55;;;;;;;22.70;19.83;;;;;21.70;101994.00;;;;2078162;28;20283;-50
2022/03/22 00:56:55;;;;;;;20.67;18.37;;;;;21.70;101991.00;;;;2078666;28;20640;-49
2022/03/22 00:57:56;;;;;;;20.23;18.10;;;;;21.70;101992.00;;;;2077191;28;20701;-50
2022/03/22 01:00:15;;;;;;;20.67;18.52;;;;;21.70;101987.00;;;;2069276;28;20712;-48
2022/03/22 01:01:16;;;;;;;19.40;17.50;;;;;21.70;101995.00;;;;2076479;28;20226;-49
2022/03/22 01:02:16;;;;;;;19.20;17.00;;;;;21.70;101988.00;;;;2073735;28;20246;-50
2022/03/22 01:03:16;;;;;;;20.20;18.00;;;;;21.70;101999.00;;;;2072896;28;20225;-50
2022/03/22 01:04:17;;;;;;;20.23;17.90;;;;;21.70;101992.00;;;;2071394;28;20206;-49
2022/03/22 01:05:19;;;;;;;18.67;16.67;;;;;21.70;101994.00;;;;2069120;28;20256;-49
2022/03/22 01:06:20;;;;;;;19.80;17.70;;;;;21.70;101990.00;;;;2070201;28;20316;-50
2022/03/22 01:07:20;;;;;;;18.07;16.37;;;;;21.70;101988.00;;;;2078081;28;20638;-50
2022/03/22 01:08:20;;;;;;;19.23;17.33;;;;;21.70;101993.00;;;;2079113;28;20212;-50
2022/03/22 01:09:21;;;;;;;19.40;17.37;;;;;21.70;101985.00;;;;2076888;28;20213;-49
2022/03/22 01:10:24;;;;;;;18.20;15.90;;;;;21.70;101992.00;;;;2078069;28;20290;-50
2022/03/22 01:11:24;;;;;;;19.60;16.95;;;;;21.70;101993.00;;;;2070664;28;20248;-50
2022/03/22 01:12:24;;;;;;;18.13;16.40;;;;;21.70;101992.00;;;;2071211;28;20701;-50
2022/03/22 01:13:27;;;;;;;18.57;16.70;;;;;21.70;101988.00;;;;2071134;28;20694;-50
2022/03/22 01:14:28;;;;;;;18.98;16.70;;;;;21.70;101998.00;;;;2071089;28;20210;-50
2022/03/22 01:15:33;;;;;;;19.90;17.90;;;;;21.70;101989.00;;;;2070118;28;20289;-49
2022/03/22 01:16:33;;;;;;;18.38;16.55;;;;;21.60;101989.00;;;;2070785;28;20516;-49
2022/03/22 01:17:34;;;;;;;19.03;17.10;;;;;21.70;101989.00;;;;2070645;28;20222;-48
2022/03/22 01:18:34;;;;;;;18.03;16.17;;;;;21.70;101996.00;;;;2071066;28;20229;-48
2022/03/22 01:19:35;;;;;;;17.90;16.20;;;;;21.70;102000.00;;;;2071257;28;20213;-49
2022/03/22 01:20:40;;;;;;;17.60;15.82;;;;;21.70;101997.00;;;;2071073;28;20242;-50
2022/03/22 01:21:40;;;;;;;19.58;17.33;;;;;21.70;101997.00;;;;2071145;28;20220;-50
2022/03/22 01:22:43;;;;;;;18.57;16.67;;;;;21.60;101991.00;;;;2070862;28;20226;-48
2022/03/22 01:23:43;;;;;;;17.25;15.65;;;;;21.60;101996.00;;;;2070793;28;20221;-49
2022/03/22 01:24:44;;;;;;;17.40;15.73;;;;;21.60;101989.00;;;;2070951;28;20705;-50
2022/03/22 01:25:44;;;;;;;17.63;15.87;;;;;21.60;101994.00;;;;2070113;28;20720;-49
2022/03/22 01:26:45;;;;;;;18.03;16.13;;;;;21.60;101926.00;;;;2070802;28;20460;-49
2022/03/22 01:27:46;;;;;;;17.03;15.40;;;;;21.60;101998.00;;;;2070989;28;20331;-49
2022/03/22 01:28:48;;;;;;;17.70;15.95;;;;;21.60;101994.00;;;;2070945;28;20774;-48
2022/03/22 01:29:49;;;;;;;17.25;15.48;;;;;21.60;101996.00;;;;2075217;28;20649;-49
2022/03/22 01:30:49;;;;;;;17.07;15.47;;;;;21.60;101986.00;;;;2079012;28;20217;-49
2022/03/22 01:31:50;;;;;;;15.83;14.33;;;;;21.60;101989.00;;;;2078994;28;20206;-49
2022/03/22 01:32:51;;;;;;;18.50;16.70;;;;;21.60;101987.00;;;;2075655;28;20298;-50
2022/03/22 01:33:52;;;;;;;17.35;15.63;;;;;21.60;101991.00;;;;2074664;28;21155;-49
2022/03/22 01:34:52;;;;;;;16.40;14.80;;;;;21.60;101993.00;;;;2078429;28;20214;-49
2022/03/22 01:35:52;;;;;;;17.10;15.37;;;;;21.60;101986.00;;;;2078323;28;20770;-50
2022/03/22 01:36:53;;;;;;;15.90;14.40;;;;;21.60;101991.00;;;;2079039;28;20223;-49
2022/03/22 01:37:54;;;;;;;15.70;14.30;;;;;21.60;101987.00;;;;2079153;28;20225;-49
2022/03/22 01:38:54;;;;;;;17.43;15.77;;;;;21.60;101983.00;;;;2078767;28;20214;-49
2022/03/22 01:39:54;;;;;;;16.33;14.83;;;;;21.60;101990.00;;;;2078610;28;20456;-50
2022/03/22 01:40:55;;;;;;;16.90;15.20;;;;;21.60;101983.00;;;;2078594;28;20217;-48
2022/03/22 01:41:55;;;;;;;16.73;15.10;;;;;21.60;101986.00;;;;2078873;28;20245;-49
2022/03/22 01:42:55;;;;;;;15.73;14.23;;;;;21.60;101980.00;;;;2078737;28;20222;-49
2022/03/22 01:43:56;;;;;;;16.73;15.13;;;;;21.60;101981.00;;;;2078654;28;20217;-48
2022/03/22 01:44:56;;;;;;;17.00;15.20;;;;;21.60;101985.00;;;;2078625;28;20628;-49
2022/03/22 01:45:56;;;;;;;15.43;14.00;;;;;21.60;101981.00;;;;2073945;28;20249;-49
2022/03/22 01:47:03;;;;;;;16.20;14.50;;;;;21.60;101988.00;;;;2070384;28;20283;-49
2022/03/22 01:48:04;;;;;;;15.88;14.38;;;;;21.60;101985.00;;;;2069454;28;20592;-49
2022/03/22 01:49:05;;;;;;;16.00;14.50;;;;;21.60;101968.00;;;;2069901;28;20281;-48
2022/03/22 01:50:07;;;;;;;15.48;14.07;;;;;21.60;101976.00;;;;2070083;28;20222;-48
2022/03/22 01:51:09;;;;;;;16.02;14.43;;;;;21.60;101979.00;;;;2069791;28;20213;-49
2022/03/22 01:52:14;;;;;;;16.55;15.05;;;;;21.50;101972.00;;;;2069544;28;20865;-49
2022/03/22 01:53:14;;;;;;;15.65;14.25;;;;;21.60;101976.00;;;;2074271;28;20210;-49
2022/03/22 01:54:15;;;;;;;16.10;14.63;;;;;21.50;101975.00;;;;2077684;28;20580;-49
2022/03/22 01:55:17;;;;;;;15.60;14.10;;;;;21.50;101978.00;;;;2078115;28;20222;-49
2022/03/22 01:56:18;;;;;;;15.38;13.88;;;;;21.50;101978.00;;;;2067172;28;20483;-49
2022/03/22 01:57:22;;;;;;;15.50;14.07;;;;;21.50;101973.00;;;;2078119;28;20289;-49
2022/03/22 01:58:24;;;;;;;16.25;14.75;;;;;21.50;101969.00;;;;2078920;28;20225;-49
2022/03/22 01:59:24;;;;;;;14.82;13.43;;;;;21.50;101976.00;;;;2078769;28;20253;-49
2022/03/22 02:00:25;;;;;;;15.20;13.60;;;;;21.50;101971.00;;;;2078824;28;20712;-49
2022/03/22 02:06:42;;;;;;;15.98;14.40;;;;;21.50;101966.00;;;;2074399;28;20585;-48
2022/03/22 02:07:43;;;;;;;14.67;13.27;;;;;21.50;101949.00;;;;2069673;28;20218;-49
2022/03/22 02:08:43;;;;;;;15.65;14.25;;;;;21.50;101945.00;;;;2061639;28;20219;-49
2022/03/22 02:09:45;;;;;;;14.47;13.17;;;;;21.50;101967.00;;;;2069436;28;20366;-50
2022/03/22 02:10:46;;;;;;;14.95;13.55;;;;;21.50;101961.00;;;;2077667;28;20700;-49
2022/03/22 02:11:46;;;;;;;15.53;13.93;;;;;21.50;101968.00;;;;2078100;28;20225;-49
2022/03/22 02:12:46;;;;;;;15.30;13.90;;;;;21.50;101964.00;;;;2078390;28;20294;-49
2022/03/22 02:13:47;;;;;;;14.70;13.30;;;;;21.50;101968.00;;;;2078356;28;20232;-49
2022/03/22 02:14:47;;;;;;;14.70;13.30;;;;;21.50;101962.00;;;;2078207;28;20236;-49
2022/03/22 02:15:50;;;;;;;15.23;13.83;;;;;21.50;101963.00;;;;2077461;28;20221;-49
2022/03/22 02:16:51;;;;;;;16.70;15.00;;;;;21.50;101965.00;;;;2077145;28;20217;-49
2022/03/22 02:17:51;;;;;;;15.77;13.87;;;;;21.50;101966.00;;;;2069344;28;20218;-49
2022/03/22 02:18:52;;;;;;;15.43;14.07;;;;;21.50;101960.00;;;;2069182;28;20752;-49
2022/03/22 02:19:52;;;;;;;14.10;12.80;;;;;21.50;101967.00;;;;2069249;28;20246;-49
2022/03/22 02:20:53;;;;;;;14.73;13.43;;;;;21.50;101960.00;;;;2069409;28;20293;-49
2022/03/22 02:21:58;;;;;;;14.93;13.43;;;;;21.40;101955.00;;;;2078308;28;20221;-49
2022/03/22 02:23:39;;;;;;;15.20;13.65;;;;;21.50;101963.00;;;;2077508;28;20448;-49
2022/03/22 02:24:40;;;;;;;14.38;13.07;;;;;21.50;101956.00;;;;2074791;28;20595;-49
2022/03/22 02:25:40;;;;;;;15.20;13.77;;;;;21.50;101958.00;;;;2076964;28;20221;-49
2022/03/22 02:26:40;;;;;;;14.57;13.17;;;;;21.50;101960.00;;;;2078285;28;20221;-49
2022/03/22 02:27:44;;;;;;;14.57;13.30;;;;;21.50;101953.00;;;;2078189;28;20249;-49
2022/03/22 02:28:45;;;;;;;14.10;12.82;;;;;21.50;101952.00;;;;2076873;28;20217;-49
2022/03/22 02:29:45;;;;;;;14.00;12.70;;;;;21.50;101959.00;;;;2078077;28;20332;-48
2022/03/22 02:30:46;;;;;;;14.33;13.03;;;;;21.20;101959.00;;;;2078009;28;20227;-49
2022/03/22 02:31:46;;;;;;;13.63;12.33;;;;;21.40;101952.00;;;;2075449;28;20224;-49
2022/03/22 02:32:53;;;;;;;14.70;13.40;;;;;21.50;101953.00;;;;2085652;28;20237;-49
2022/03/22 02:33:54;;;;;;;12.98;11.75;;;;;21.40;101954.00;;;;2077485;28;20351;-49
2022/03/22 02:34:54;;;;;;;13.53;12.33;;;;;21.40;101954.00;;;;2078258;28;20664;-50
2022/03/22 02:35:55;;;;;;;14.60;13.20;;;;;21.50;101955.00;;;;2077255;28;20214;-50
2022/03/22 02:36:55;;;;;;;14.50;13.13;;;;;21.40;101957.00;;;;2078026;28;20210;-49
2022/03/22 02:37:56;;;;;;;13.50;12.20;;;;;21.40;101951.00;;;;2078124;28;20221;-49
2022/03/22 02:38:56;;;;;;;14.00;12.70;;;;;21.50;101952.00;;;;2077537;28;20222;-49
2022/03/22 02:39:56;;;;;;;13.77;12.53;;;;;21.40;101956.00;;;;2078184;28;20221;-49
2022/03/22 02:40:56;;;;;;;13.43;12.13;;;;;21.40;101964.00;;;;2069987;28;20237;-49
2022/03/22 02:41:57;;;;;;;13.90;12.70;;;;;21.40;101950.00;;;;2070336;28;20253;-49
2022/03/22 02:42:59;;;;;;;14.07;12.67;;;;;21.40;101957.00;;;;2070169;28;20222;-49
2022/03/22 02:43:59;;;;;;;14.30;12.93;;;;;21.40;101957.00;;;;2069816;28;20214;-49
2022/03/22 02:45:00;;;;;;;14.40;13.10;;;;;21.40;101953.00;;;;2069672;28;20314;-49
2022/03/22 02:46:00;;;;;;;13.50;12.20;;;;;21.40;101946.00;;;;2069415;28;20217;-49
2022/03/22 02:47:00;;;;;;;14.60;13.13;;;;;21.40;101949.00;;;;2069546;28;20218;-49
2022/03/22 02:48:01;;;;;;;13.00;11.90;;;;;21.40;101952.00;;;;2070214;28;20253;-50
2022/03/22 02:49:01;;;;;;;13.73;12.37;;;;;21.40;101951.00;;;;2077836;28;20232;-50
2022/03/22 02:50:01;;;;;;;14.47;13.07;;;;;21.40;101947.00;;;;2069292;28;20213;-49
2022/03/22 02:51:02;;;;;;;13.00;11.90;;;;;21.40;101950.00;;;;2085440;28;20360;-49
2022/03/22 02:52:03;;;;;;;13.98;12.70;;;;;21.40;101949.00;;;;2085014;28;20219;-49
2022/03/22 02:53:03;;;;;;;13.20;12.00;;;;;21.40;101959.00;;;;2077838;28;20291;-49
2022/03/22 02:54:04;;;;;;;13.67;12.37;;;;;21.40;101954.00;;;;2078287;28;20239;-49
2022/03/22 02:55:06;;;;;;;14.23;12.83;;;;;21.40;101953.00;;;;2078201;28;20693;-48
2022/03/22 02:56:06;;;;;;;13.45;12.25;;;;;21.40;101952.00;;;;2077563;28;20212;-48
2022/03/22 02:57:06;;;;;;;14.10;12.80;;;;;21.40;101957.00;;;;2077976;28;20245;-48
2022/03/22 02:58:07;;;;;;;13.37;12.07;;;;;21.40;101953.00;;;;2078303;28;20760;-49
2022/03/22 02:59:07;;;;;;;13.20;11.90;;;;;21.40;101949.00;;;;2078187;28;20213;-49
2022/03/22 03:00:08;;;;;;;13.80;12.50;;;;;21.40;101952.00;;;;2078314;28;20267;-48
2022/03/22 03:01:09;;;;;;;13.80;12.60;;;;;21.40;101954.00;;;;2078526;28;20221;-49
2022/03/22 03:02:09;;;;;;;13.20;12.00;;;;;21.40;101961.00;;;;2078558;28;20454;-48
2022/03/22 03:03:09;;;;;;;12.97;11.77;;;;;21.40;101958.00;;;;2078283;28;20214;-49
2022/03/22 03:04:10;;;;;;;13.57;12.27;;;;;21.40;101955.00;;;;2077863;28;20201;-49
2022/03/22 03:05:10;;;;;;;13.23;12.03;;;;;21.40;101958.00;;;;2069707;28;20249;-49
2022/03/22 03:06:12;;;;;;;11.30;10.30;;;;;21.40;101954.00;;;;2077232;28;20205;-49
2022/03/22 03:07:12;;;;;;;12.88;11.65;;;;;21.40;101967.00;;;;2077677;28;20565;-49
2022/03/22 03:08:12;;;;;;;12.17;11.07;;;;;21.40;101958.00;;;;2078593;28;20225;-49
2022/03/22 03:09:13;;;;;;;13.53;12.23;;;;;21.40;101965.00;;;;2078536;28;20218;-50
2022/03/22 03:10:13;;;;;;;12.67;11.57;;;;;21.40;101967.00;;;;2078503;28;20213;-50
2022/03/22 03:11:13;;;;;;;13.00;11.90;;;;;21.40;101962.00;;;;2078478;28;20209;-50
2022/03/22 03:12:14;;;;;;;11.83;10.80;;;;;21.40;101968.00;;;;2078424;28;20220;-49
2022/03/22 03:13:14;;;;;;;12.23;11.03;;;;;21.40;101958.00;;;;2078109;28;20259;-50
2022/03/22 03:15:34;;;;;;;13.45;12.15;;;;;21.40;101961.00;;;;2077577;28;20225;-50
2022/03/22 03:16:34;;;;;;;12.50;11.40;;;;;21.40;101957.00;;;;2078138;28;20585;-49
2022/03/22 03:17:35;;;;;;;12.50;11.30;;;;;21.30;101963.00;;;;2078317;28;20205;-48
2022/03/22 03:18:35;;;;;;;12.60;11.50;;;;;21.30;101964.00;;;;2075538;28;20214;-50
2022/03/22 03:19:35;;;;;;;12.70;11.50;;;;;21.30;101967.00;;;;2070491;28;20244;-50
2022/03/22 03:20:36;;;;;;;13.97;12.17;;;;;21.30;101973.00;;;;2070381;28;20218;-50
2022/03/22 03:21:36;;;;;;;12.40;11.30;;;;;21.30;101970.00;;;;2070474;28;20309;-48
2022/03/22 03:22:37;;;;;;;13.20;12.00;;;;;21.30;101965.00;;;;2070322;28;20317;-49
2022/03/22 03:23:37;;;;;;;12.40;11.20;;;;;21.30;101972.00;;;;2070107;28;20210;-49
2022/03/22 03:24:37;;;;;;;12.73;11.53;;;;;21.30;101972.00;;;;2070306;28;20295;-50
2022/03/22 03:25:38;;;;;;;13.10;11.90;;;;;21.30;101965.00;;;;2069734;28;20206;-50
2022/03/22 03:26:38;;;;;;;13.23;11.93;;;;;21.30;101974.00;;;;2070118;28;20332;-49
2022/03/22 03:27:39;;;;;;;12.33;11.23;;;;;21.30;101974.00;;;;2070260;28;20241;-48
2022/03/22 03:28:39;;;;;;;13.23;11.97;;;;;21.30;101973.00;;;;2070133;28;20202;-49
2022/03/22 03:29:40;;;;;;;12.17;11.07;;;;;21.30;101973.00;;;;2070252;28;20215;-49
2022/03/22 03:30:41;;;;;;;12.43;11.23;;;;;21.30;101970.00;;;;2070108;28;20210;-49
2022/03/22 03:31:41;;;;;;;11.50;10.50;;;;;21.30;101975.00;;;;2070524;28;20214;-49
2022/03/22 03:32:42;;;;;;;12.43;11.33;;;;;21.30;101970.00;;;;2070399;28;20202;-49
2022/03/22 03:33:43;;;;;;;11.00;10.00;;;;;21.30;101971.00;;;;2070103;28;20943;-49
2022/03/22 03:34:43;;;;;;;12.00;10.90;;;;;21.30;101972.00;;;;2070506;28;20461;-49
2022/03/22 03:35:43;;;;;;;11.97;10.97;;;;;21.30;101965.00;;;;2070040;28;20240;-49
2022/03/22 03:36:44;;;;;;;11.80;10.73;;;;;21.30;101980.00;;;;2070423;28;20220;-48
2022/03/22 03:37:45;;;;;;;12.40;11.20;;;;;21.20;101975.00;;;;2070632;28;20222;-49
2022/03/22 03:38:46;;;;;;;12.70;11.38;;;;;21.30;101977.00;;;;2070565;28;20646;-49
2022/03/22 03:39:46;;;;;;;11.57;10.57;;;;;21.30;101976.00;;;;2070536;28;20230;-48
2022/03/22 03:42:06;;;;;;;11.23;10.23;;;;;21.30;101979.00;;;;2070031;28;20614;-49
2022/03/22 03:43:06;;;;;;;11.98;10.88;;;;;21.30;101972.00;;;;2069562;28;20236;-49
2022/03/22 03:48:04;;;;;;;11.15;10.25;;;;;21.30;101990.00;;;;2077590;28;20792;-49
2022/03/22 03:49:06;;;;;;;11.18;10.18;;;;;21.30;101974.00;;;;2078493;28;20248;-51
2022/03/22 03:50:07;;;;;;;11.50;10.50;;;;;21.30;101981.00;;;;2078332;28;20220;-50
2022/03/22 03:51:07;;;;;;;12.10;11.00;;;;;21.30;101978.00;;;;2079110;28;20252;-50
2022/03/22 03:52:09;;;;;;;11.60;10.60;;;;;21.30;101979.00;;;;2079881;28;20716;-50
2022/03/22 03:53:10;;;;;;;12.02;11.00;;;;;21.30;101980.00;;;;2079051;28;20275;-50
2022/03/22 03:54:10;;;;;;;12.20;11.10;;;;;21.30;101980.00;;;;2079323;28;20645;-49
2022/03/22 03:55:11;;;;;;;11.70;10.60;;;;;21.30;101983.00;;;;2079420;28;21046;-49
2022/03/22 03:56:11;;;;;;;12.87;11.57;;;;;21.30;101986.00;;;;2078926;28;20236;-50
2022/03/22 03:57:11;;;;;;;11.07;9.97;;;;;21.30;101988.00;;;;2079338;28;20214;-48
2022/03/22 03:58:12;;;;;;;11.40;10.30;;;;;21.30;101987.00;;;;2079108;28;20782;-49
2022/03/22 03:59:12;;;;;;;11.53;10.43;;;;;21.30;101989.00;;;;2079138;28;20205;-50
2022/03/22 04:00:13;;;;;;;11.17;10.07;;;;;21.20;101993.00;;;;2079181;28;20218;-48
2022/03/22 04:01:13;;;;;;;10.83;9.83;;;;;21.30;101987.00;;;;2079058;28;20217;-50
2022/03/22 04:02:14;;;;;;;11.43;10.43;;;;;21.30;101984.00;;;;2079296;28;20444;-49
2022/03/22 04:03:14;;;;;;;10.83;9.83;;;;;21.30;101983.00;;;;2079151;28;20263;-50
2022/03/22 04:04:14;;;;;;;11.30;10.30;;;;;21.30;101984.00;;;;2071973;28;20214;-50
2022/03/22 04:05:15;;;;;;;11.27;10.27;;;;;21.30;101987.00;;;;2079474;28;20670;-50
2022/03/22 04:06:15;;;;;;;11.40;10.30;;;;;21.30;101985.00;;;;2079017;28;20279;-48
2022/03/22 04:07:18;;;;;;;10.60;9.70;;;;;21.30;101991.00;;;;2079735;28;20240;-49
2022/03/22 04:08:18;;;;;;;11.20;10.20;;;;;21.30;101982.00;;;;2079705;28;20213;-50
2022/03/22 04:09:19;;;;;;;11.40;10.37;;;;;21.30;101986.00;;;;2080057;28;20210;-48
2022/03/22 04:10:19;;;;;;;10.77;9.80;;;;;21.30;101986.00;;;;2080009;28;20214;-50
2022/03/22 04:11:20;;;;;;;10.83;9.83;;;;;21.20;101989.00;;;;2079866;28;20685;-50
2022/03/22 04:12:22;;;;;;;11.20;10.20;;;;;21.20;101981.00;;;;2071723;28;20716;-49
2022/03/22 04:13:22;;;;;;;11.10;10.15;;;;;21.20;101981.00;;;;2072024;28;20210;-49
2022/03/22 04:14:23;;;;;;;10.77;9.80;;;;;21.20;101987.00;;;;2071410;28;20240;-48
2022/03/22 04:15:25;;;;;;;11.07;10.07;;;;;21.20;101979.00;;;;2071140;28;20222;-49
2022/03/22 04:16:26;;;;;;;11.40;10.40;;;;;21.20;101981.00;;;;2071820;28;20302;-49
2022/03/22 04:17:26;;;;;;;11.47;10.40;;;;;21.20;101980.00;;;;2071014;28;20309;-49
2022/03/22 04:18:26;;;;;;;10.57;9.57;;;;;21.20;101994.00;;;;2070966;28;20214;-49
2022/03/22 04:19:27;;;;;;;10.57;9.67;;;;;21.20;101988.00;;;;2071818;28;20483;-49
2022/03/22 04:20:30;;;;;;;10.40;9.48;;;;;21.20;101990.00;;;;2071707;28;20271;-49
2022/03/22 04:21:30;;;;;;;11.13;10.02;;;;;21.20;101990.00;;;;2071852;28;20206;-49
2022/03/22 04:22:30;;;;;;;10.27;9.37;;;;;21.20;101988.00;;;;2074722;28;20228;-49
2022/03/22 04:23:31;;;;;;;11.67;10.67;;;;;21.20;101991.00;;;;2079822;28;20213;-49
2022/03/22 04:24:31;;;;;;;11.70;10.70;;;;;21.20;101986.00;;;;2079690;28;20241;-49
2022/03/22 04:25:31;;;;;;;10.93;9.90;;;;;21.20;101985.00;;;;2077004;28;20229;-49
2022/03/22 04:26:35;;;;;;;10.67;9.77;;;;;21.20;101986.00;;;;2071759;28;20765;-49
2022/03/22 04:32:51;;;;;;;11.57;10.20;;;;;21.20;101986.00;;;;2078430;28;20210;-49
2022/03/22 04:33:52;;;;;;;10.20;9.30;;;;;21.20;101989.00;;;;2079615;28;20308;-49
2022/03/22 04:34:53;;;;;;;11.02;10.02;;;;;21.20;101987.00;;;;2079604;28;20209;-49
2022/03/22 04:35:53;;;;;;;10.83;9.87;;;;;21.20;101992.00;;;;2073658;28;20261;-49
2022/03/22 04:36:57;;;;;;;9.40;8.60;;;;;21.20;101979.00;;;;2070345;28;20206;-49
2022/03/22 04:37:57;;;;;;;10.15;9.25;;;;;21.20;101989.00;;;;2071507;28;20702;-49
2022/03/22 04:38:57;;;;;;;9.77;8.97;;;;;21.20;101978.00;;;;2071294;28;20225;-48
2022/03/22 04:39:58;;;;;;;10.17;9.03;;;;;21.20;101990.00;;;;2071618;28;20214;-49
2022/03/22 04:40:58;;;;;;;10.90;9.90;;;;;21.20;101990.00;;;;2077086;28;20225;-49
2022/03/22 04:41:59;;;;;;;9.73;8.87;;;;;21.20;101992.00;;;;2070863;28;20317;-49
2022/03/22 04:43:00;;;;;;;10.38;9.48;;;;;21.20;101998.00;;;;2079279;28;20233;-49
2022/03/22 04:44:01;;;;;;;10.73;9.80;;;;;21.20;101993.00;;;;2073244;28;20217;-49
2022/03/22 04:45:02;;;;;;;11.17;10.17;;;;;21.20;101994.00;;;;2071364;28;20674;-49
2022/03/22 04:46:02;;;;;;;9.70;8.85;;;;;21.20;101996.00;;;;2070922;28;20210;-49
2022/03/22 04:47:02;;;;;;;10.00;9.10;;;;;21.20;101992.00;;;;2071461;28;20301;-48
2022/03/22 04:48:03;;;;;;;9.53;8.70;;;;;21.10;101992.00;;;;2076855;28;20209;-48
2022/03/22 04:49:04;;;;;;;9.90;8.93;;;;;21.20;101993.00;;;;2079480;28;20233;-49
2022/03/22 04:50:06;;;;;;;10.03;9.13;;;;;21.10;102001.00;;;;2078597;28;20256;-48
2022/03/22 04:57:40;;;;;;;10.68;9.77;;;;;21.10;102003.00;;;;2074793;28;20296;-48
2022/03/22 04:58:41;;;;;;;10.47;9.57;;;;;21.10;101993.00;;;;2073969;28;20209;-49
2022/03/22 04:59:42;;;;;;;10.07;9.17;;;;;21.10;101992.00;;;;2069192;28;20210;-49
2022/03/22 05:00:43;;;;;;;9.20;8.40;;;;;21.10;101995.00;;;;2071072;28;20241;-49
2022/03/22 05:01:43;;;;;;;9.63;8.73;;;;;21.10;102000.00;;;;2073726;28;20348;-49
2022/03/22 05:02:43;;;;;;;9.43;8.63;;;;;21.10;101989.00;;;;2070672;28;20222;-49
2022/03/22 05:03:44;;;;;;;9.83;9.00;;;;;21.10;101993.00;;;;2071160;28;20224;-49
2022/03/22 05:04:44;;;;;;;9.10;8.30;;;;;21.10;101989.00;;;;2072221;28;20248;-48
2022/03/22 05:07:04;;;;;;;9.73;8.93;;;;;21.10;101995.00;;;;2078931;28;20217;-48
2022/03/22 05:08:04;;;;;;;9.90;9.00;;;;;21.10;101995.00;;;;2078396;28;20221;-48
2022/03/22 05:09:05;;;;;;;9.67;8.87;;;;;21.10;101999.00;;;;2075460;28;20224;-49
2022/03/22 05:10:05;;;;;;;9.17;8.43;;;;;21.10;101997.00;;;;2079120;28;20217;-49
2022/03/22 05:11:07;;;;;;;9.37;8.57;;;;;21.10;102004.00;;;;2072345;28;20222;-49
2022/03/22 05:12:13;;;;;;;9.73;8.93;;;;;21.10;102002.00;;;;2070681;28;20221;-48
2022/03/22 05:13:13;;;;;;;9.70;8.88;;;;;21.10;101996.00;;;;2070663;28;20218;-49
2022/03/22 05:14:13;;;;;;;8.80;8.10;;;;;21.10;101996.00;;;;2073080;28;20241;-49
2022/03/22 05:15:14;;;;;;;9.10;8.40;;;;;21.10;102003.00;;;;2078698;28;20589;-50
2022/03/22 05:16:17;;;;;;;9.27;8.47;;;;;21.10;102005.00;;;;2077054;28;20531;-53
2022/03/22 05:17:21;;;;;;;9.55;8.75;;;;;21.10;102002.00;;;;2078564;28;20586;-48
2022/03/22 05:18:23;;;;;;;9.60;8.80;;;;;21.10;101996.00;;;;2078935;28;20217;-50
2022/03/22 05:19:23;;;;;;;9.27;8.48;;;;;21.10;102004.00;;;;2078730;28;20308;-49
2022/03/22 05:20:23;;;;;;;9.60;8.80;;;;;21.10;102004.00;;;;2078801;28;20622;-49
2022/03/22 05:21:24;;;;;;;9.57;8.70;;;;;21.10;102004.00;;;;2079153;28;20635;-48